createdAt,value
2018-12-19T00:02:14.074Z,2.10
2018-12-19T00:04:47.317Z,2.02
2018-12-19T00:07:19.435Z,2.09
2018-12-19T00:09:48.790Z,2.07
2018-12-19T00:12:18.178Z,1.96
2018-12-19T00:14:47.596Z,2.03
2018-12-19T00:17:19.257Z,1.96
2018-12-19T00:19:53.757Z,1.95
2018-12-19T00:22:23.899Z,1.99
2018-12-19T00:24:53.598Z,1.93
2018-12-19T00:27:25.338Z,1.93
2018-12-19T00:29:57.994Z,1.93
2018-12-19T00:32:29.645Z,1.94
2018-12-19T00:35:00.917Z,2.03
2018-12-19T00:37:30.143Z,2.00
2018-12-19T00:40:00.071Z,1.96
2018-12-19T00:42:31.340Z,1.87
2018-12-19T00:45:01.455Z,1.92
2018-12-19T00:47:31.157Z,1.82
2018-12-19T00:50:01.693Z,1.89
2018-12-19T00:52:31.052Z,1.88
2018-12-19T00:55:02.764Z,1.86
2018-12-19T00:57:32.861Z,1.92
2018-12-19T01:00:02.120Z,1.89
2018-12-19T01:02:39.547Z,1.87
2018-12-19T01:05:09.632Z,1.83
2018-12-19T01:07:39.215Z,1.89
2018-12-19T01:10:08.551Z,1.85
2018-12-19T01:12:38.544Z,1.83
2018-12-19T01:15:08.747Z,1.79
2018-12-19T01:17:39.383Z,1.82
2018-12-19T01:20:11.443Z,1.77
2018-12-19T01:22:42.681Z,1.79
2018-12-19T01:25:12.208Z,1.81
2018-12-19T01:27:42.249Z,1.75
2018-12-19T01:30:13.463Z,1.78
2018-12-19T01:32:43.878Z,1.80
2018-12-19T01:35:14.067Z,1.73
2018-12-19T01:37:43.655Z,1.68
2018-12-19T01:40:14.026Z,1.71
2018-12-19T01:42:43.610Z,1.74
2018-12-19T01:45:14.462Z,1.68
2018-12-19T01:47:44.181Z,1.73
2018-12-19T01:50:14.347Z,1.73
2018-12-19T01:52:43.586Z,1.69
2018-12-19T01:55:13.196Z,1.67
2018-12-19T01:57:43.296Z,1.70
2018-12-19T02:00:12.575Z,1.61
2018-12-19T02:02:45.418Z,1.66
2018-12-19T02:05:15.153Z,1.64
2018-12-19T02:07:46.320Z,1.65
2018-12-19T02:10:17.198Z,1.53
2018-12-19T02:12:48.294Z,1.55
2018-12-19T02:15:17.657Z,1.56
2018-12-19T02:17:49.807Z,1.53
2018-12-19T02:20:19.096Z,1.58
2018-12-19T02:22:51.797Z,1.49
2018-12-19T02:25:21.560Z,1.56
2018-12-19T02:27:50.772Z,1.54
2018-12-19T02:30:21.571Z,1.49
2018-12-19T02:32:50.952Z,1.43
2018-12-19T02:35:21.031Z,1.52
2018-12-19T02:37:50.488Z,1.49
2018-12-19T02:40:20.027Z,1.43
2018-12-19T02:42:50.270Z,1.45
2018-12-19T02:45:20.068Z,1.52
2018-12-19T02:47:49.512Z,1.42
2018-12-19T02:50:20.119Z,1.41
2018-12-19T02:52:50.036Z,1.43
2018-12-19T02:55:19.415Z,1.43
2018-12-19T02:57:49.996Z,1.41
2018-12-19T03:00:19.685Z,1.42
2018-12-19T03:02:52.031Z,1.44
2018-12-19T03:05:23.269Z,1.47
2018-12-19T03:07:52.923Z,1.39
2018-12-19T03:10:22.395Z,1.44
2018-12-19T03:12:53.350Z,1.39
2018-12-19T03:15:22.848Z,1.36
2018-12-19T03:17:53.749Z,1.42
2018-12-19T03:20:24.515Z,1.39
2018-12-19T03:22:54.929Z,1.40
2018-12-19T03:25:24.418Z,1.41
2018-12-19T03:27:55.160Z,1.41
2018-12-19T03:30:25.376Z,1.43
2018-12-19T03:32:54.643Z,1.43
2018-12-19T03:35:24.485Z,1.40
2018-12-19T03:37:55.385Z,1.40
2018-12-19T03:40:24.693Z,1.42
2018-12-19T03:42:54.818Z,1.38
2018-12-19T03:45:24.165Z,1.37
2018-12-19T03:47:53.356Z,1.44
2018-12-19T03:50:22.689Z,1.39
2018-12-19T03:52:51.958Z,1.38
2018-12-19T03:55:22.179Z,1.32
2018-12-19T03:57:54.071Z,1.42
2018-12-19T04:00:23.708Z,1.41
2018-12-19T04:02:53.109Z,1.42
2018-12-19T04:05:22.956Z,1.41
2018-12-19T04:07:52.955Z,1.37
2018-12-19T04:10:24.288Z,1.40
2018-12-19T04:12:55.316Z,1.47
2018-12-19T04:15:26.006Z,1.41
2018-12-19T04:17:57.363Z,1.45
2018-12-19T04:20:26.650Z,1.47
2018-12-19T04:22:58.134Z,1.47
2018-12-19T04:25:28.712Z,1.50
2018-12-19T04:27:59.269Z,1.43
2018-12-19T04:30:28.775Z,1.38
2018-12-19T04:33:00.223Z,1.45
2018-12-19T04:35:29.547Z,1.52
2018-12-19T04:37:59.873Z,1.51
2018-12-19T04:40:30.038Z,1.50
2018-12-19T04:43:00.781Z,1.50
2018-12-19T04:45:30.096Z,1.56
2018-12-19T04:47:59.460Z,1.60
2018-12-19T04:50:30.480Z,1.53
2018-12-19T04:53:00.465Z,1.47
2018-12-19T04:55:30.631Z,1.57
2018-12-19T04:57:59.881Z,1.44
2018-12-19T05:00:29.485Z,1.57
2018-12-19T05:02:58.916Z,1.52
2018-12-19T05:05:28.568Z,1.53
2018-12-19T05:07:58.168Z,1.64
2018-12-19T05:10:27.654Z,1.58
2018-12-19T05:12:56.917Z,1.64
2018-12-19T05:15:27.575Z,1.59
2018-12-19T05:17:57.238Z,1.63
2018-12-19T05:20:27.174Z,1.57
2018-12-19T05:22:56.449Z,1.63
2018-12-19T05:25:25.691Z,1.64
2018-12-19T05:27:55.905Z,1.64
2018-12-19T05:30:25.293Z,1.66
2018-12-19T05:32:55.652Z,1.66
2018-12-19T05:35:25.229Z,1.62
2018-12-19T05:37:54.537Z,1.61
2018-12-19T05:40:24.329Z,1.60
2018-12-19T05:42:54.045Z,1.59
2018-12-19T05:45:23.380Z,1.59
2018-12-19T05:47:52.777Z,1.58
2018-12-19T05:50:24.996Z,1.60
2018-12-19T05:52:54.272Z,1.58
2018-12-19T05:55:23.509Z,1.57
2018-12-19T05:57:52.883Z,1.61
2018-12-19T06:00:24.789Z,1.64
2018-12-19T06:03:01.514Z,1.52
2018-12-19T06:05:31.542Z,1.56
2018-12-19T06:08:00.992Z,1.53
2018-12-19T06:10:31.460Z,1.58
2018-12-19T06:13:00.816Z,1.62
2018-12-19T06:15:30.497Z,1.68
2018-12-19T06:18:00.629Z,1.57
2018-12-19T06:20:30.717Z,1.51
2018-12-19T06:23:01.118Z,1.52
2018-12-19T06:25:30.402Z,1.55
2018-12-19T06:28:05.173Z,1.53
2018-12-19T06:30:34.519Z,1.55
2018-12-19T06:33:03.849Z,1.50
2018-12-19T06:35:33.646Z,1.53
2018-12-19T06:38:03.313Z,1.50
2018-12-19T06:40:32.989Z,1.60
2018-12-19T06:43:03.300Z,1.53
2018-12-19T06:45:33.192Z,1.50
2018-12-19T06:48:02.389Z,1.47
2018-12-19T06:50:32.501Z,1.58
2018-12-19T06:53:02.071Z,1.58
2018-12-19T06:55:33.612Z,1.61
2018-12-19T06:58:03.535Z,1.53
2018-12-19T07:00:32.785Z,1.51
2018-12-19T07:03:02.402Z,1.51
2018-12-19T07:05:32.243Z,1.49
2018-12-19T07:08:02.512Z,1.39
2018-12-19T07:10:38.964Z,1.44
2018-12-19T07:13:05.137Z,1.42
2018-12-19T07:15:35.361Z,1.41
2018-12-19T07:18:04.574Z,1.41
2018-12-19T07:20:34.485Z,1.40
2018-12-19T07:23:03.697Z,1.36
2018-12-19T07:25:33.965Z,1.46
2018-12-19T07:28:03.641Z,1.43
2018-12-19T07:30:33.357Z,1.50
2018-12-19T07:33:03.206Z,1.52
2018-12-19T07:35:33.223Z,1.48
2018-12-19T07:38:03.085Z,1.47
2018-12-19T07:40:32.273Z,1.57
2018-12-19T07:43:01.609Z,1.53
2018-12-19T07:45:31.163Z,1.56
2018-12-19T07:48:00.409Z,1.67
2018-12-19T07:50:30.155Z,1.65
2018-12-19T07:53:01.855Z,1.66
2018-12-19T07:55:36.064Z,1.69
2018-12-19T07:58:05.358Z,1.72
2018-12-19T08:00:34.511Z,1.70
2018-12-19T08:03:03.775Z,1.74
2018-12-19T08:05:34.365Z,1.82
2018-12-19T08:08:04.159Z,1.81
2018-12-19T08:10:34.144Z,1.82
2018-12-19T08:13:03.294Z,1.77
2018-12-19T08:15:32.825Z,1.73
2018-12-19T08:18:02.099Z,1.83
2018-12-19T08:20:31.328Z,1.81
2018-12-19T08:23:00.559Z,1.91
2018-12-19T08:25:32.242Z,1.94
2018-12-19T08:28:01.590Z,2.00
2018-12-19T08:30:30.909Z,2.00
2018-12-19T08:33:00.249Z,1.97
2018-12-19T08:35:29.488Z,2.02
2018-12-19T08:37:59.201Z,1.97
2018-12-19T08:40:30.730Z,2.00
2018-12-19T08:43:01.540Z,2.00
2018-12-19T08:45:33.477Z,1.99
2018-12-19T08:48:03.303Z,2.05
2018-12-19T08:50:32.611Z,2.03
2018-12-19T08:53:02.172Z,2.03
2018-12-19T08:55:32.758Z,2.08
2018-12-19T08:58:02.807Z,2.07
2018-12-19T09:00:34.521Z,2.13
2018-12-19T09:03:04.554Z,2.12
2018-12-19T09:05:33.973Z,2.11
2018-12-19T09:08:05.018Z,2.15
2018-12-19T09:10:34.384Z,2.19
2018-12-19T09:13:04.336Z,2.22
2018-12-19T09:15:54.196Z,2.24
2018-12-19T09:18:24.448Z,2.30
2018-12-19T09:27:33.106Z,2.27
2018-12-19T09:30:02.545Z,2.30
2018-12-19T09:32:32.547Z,2.32
2018-12-19T09:35:02.625Z,2.29
2018-12-19T09:37:32.534Z,2.37
2018-12-19T09:40:01.826Z,2.36
2018-12-19T09:42:31.190Z,2.31
2018-12-19T09:45:01.782Z,2.38
2018-12-19T09:47:32.644Z,2.33
2018-12-19T09:50:01.988Z,2.33
2018-12-19T09:52:32.081Z,2.34
2018-12-19T09:55:01.393Z,2.39
2018-12-19T09:57:32.421Z,2.42
2018-12-19T10:02:37.869Z,2.32
2018-12-19T10:05:07.328Z,2.34
2018-12-19T10:07:42.814Z,2.34
2018-12-19T10:10:13.492Z,2.35
2018-12-19T10:12:42.847Z,2.39
2018-12-19T10:15:12.844Z,2.36
2018-12-19T10:17:42.200Z,2.38
2018-12-19T10:20:12.250Z,2.46
2018-12-19T10:22:41.534Z,2.44
2018-12-19T10:25:14.755Z,2.44
2018-12-19T10:27:43.973Z,2.43
2018-12-19T10:30:14.671Z,2.46
2018-12-19T10:32:43.966Z,2.50
2018-12-19T10:35:13.258Z,2.61
2018-12-19T10:37:42.559Z,2.61
2018-12-19T10:40:13.231Z,2.40
2018-12-19T10:42:42.512Z,2.64
2018-12-19T10:45:12.049Z,2.57
2018-12-19T10:47:41.726Z,2.52
2018-12-19T10:50:11.875Z,2.57
2018-12-19T10:52:41.268Z,2.61
2018-12-19T10:55:10.642Z,2.65
2018-12-19T10:57:39.978Z,2.65
2018-12-19T11:00:18.151Z,2.61
2018-12-19T11:02:47.912Z,2.62
2018-12-19T11:05:17.184Z,2.56
2018-12-19T11:07:47.731Z,2.58
2018-12-19T11:10:17.630Z,2.87
2018-12-19T11:12:46.844Z,2.84
2018-12-19T11:15:16.110Z,2.74
2018-12-19T11:17:45.809Z,2.64
2018-12-19T11:20:15.021Z,2.64
2018-12-19T11:22:45.367Z,2.54
2018-12-19T11:25:14.645Z,2.54
2018-12-19T11:27:44.556Z,2.84
2018-12-19T11:30:15.592Z,2.80
2018-12-19T11:32:45.570Z,2.56
2018-12-19T11:35:16.802Z,2.57
2018-12-19T11:37:46.909Z,2.57
2018-12-19T11:40:16.568Z,2.56
2018-12-19T11:42:45.875Z,2.56
2018-12-19T11:45:16.582Z,2.54
2018-12-19T11:47:45.884Z,2.62
2018-12-19T11:50:16.070Z,2.61
2018-12-19T11:52:45.979Z,2.52
2018-12-19T11:55:15.625Z,2.53
2018-12-19T11:57:44.873Z,2.83
2018-12-19T12:00:15.299Z,2.56
2018-12-19T12:09:45.656Z,2.55
2018-12-19T12:12:16.947Z,2.45
2018-12-19T12:14:46.699Z,2.54
2018-12-19T12:17:16.172Z,2.43
2018-12-19T12:19:46.237Z,2.41
2018-12-19T12:22:15.752Z,2.55
2018-12-19T12:24:45.738Z,2.43
2018-12-19T12:27:14.955Z,2.46
2018-12-19T12:29:44.395Z,2.47
2018-12-19T12:32:14.603Z,2.52
2018-12-19T12:34:44.323Z,2.48
2018-12-19T12:37:14.732Z,2.45
2018-12-19T12:39:45.066Z,2.40
2018-12-19T12:42:16.657Z,2.40
2018-12-19T12:44:47.606Z,2.38
2018-12-19T12:47:16.846Z,2.38
2018-12-19T12:49:46.267Z,2.34
2018-12-19T12:52:17.430Z,2.30
2018-12-19T12:54:48.788Z,2.32
2018-12-19T12:57:18.429Z,2.32
2018-12-19T12:59:48.439Z,2.31
2018-12-19T13:02:18.489Z,2.30
2018-12-19T13:04:47.791Z,2.32
2018-12-19T13:07:18.129Z,2.34
2018-12-19T13:09:47.681Z,2.29
2018-12-19T13:12:18.627Z,2.27
2018-12-19T13:14:47.878Z,2.26
2018-12-19T13:17:17.674Z,2.29
2018-12-19T13:19:47.030Z,2.33
2018-12-19T13:22:19.965Z,2.27
2018-12-19T13:24:49.188Z,2.30
2018-12-19T13:27:20.038Z,2.31
2018-12-19T13:29:49.777Z,2.21
2018-12-19T13:32:19.853Z,2.18
2018-12-19T13:34:49.291Z,2.20
2018-12-19T13:37:18.610Z,2.17
2018-12-19T13:39:53.351Z,2.18
2018-12-19T13:42:22.643Z,2.19
2018-12-19T13:44:52.480Z,2.16
2018-12-19T13:47:21.972Z,2.12
2018-12-19T13:49:53.293Z,2.21
2018-12-19T13:52:23.635Z,2.19
2018-12-19T13:54:54.511Z,2.13
2018-12-19T13:57:28.337Z,2.12
2018-12-19T13:59:57.867Z,2.08
2018-12-19T14:02:27.147Z,2.17
2018-12-19T14:04:56.507Z,2.10
2018-12-19T14:07:27.901Z,2.11
2018-12-19T14:09:58.150Z,2.09
2018-12-19T14:12:28.419Z,2.04
2018-12-19T14:14:59.164Z,2.08
2018-12-19T14:17:29.543Z,2.01
2018-12-19T14:19:59.074Z,2.02
2018-12-19T14:22:28.546Z,2.06
2018-12-19T14:24:58.944Z,2.06
2018-12-19T14:27:29.675Z,2.08
2018-12-19T14:29:59.955Z,2.04
2018-12-19T14:32:29.351Z,2.01
2018-12-19T14:37:35.252Z,2.03
2018-12-19T14:40:05.814Z,1.94
2018-12-19T14:42:35.108Z,2.03
2018-12-19T14:45:06.273Z,2.07
2018-12-19T14:47:35.801Z,1.98
2018-12-19T14:50:09.140Z,2.04
2018-12-19T14:52:40.345Z,1.97
2018-12-19T14:55:09.517Z,1.97
2018-12-19T14:57:39.027Z,1.92
2018-12-19T15:00:10.315Z,1.92
2018-12-19T15:02:40.858Z,1.92
2018-12-19T15:05:10.730Z,1.98
2018-12-19T15:07:40.147Z,1.92
2018-12-19T15:10:10.310Z,1.89
2018-12-19T15:12:40.470Z,1.94
2018-12-19T15:15:10.703Z,1.92
2018-12-19T15:17:39.967Z,1.85
2018-12-19T15:20:09.334Z,1.85
2018-12-19T15:22:39.854Z,1.84
2018-12-19T15:25:10.955Z,1.81
2018-12-19T15:27:42.023Z,1.84
2018-12-19T15:30:11.558Z,1.80
2018-12-19T15:32:43.098Z,1.89
2018-12-19T15:35:12.579Z,1.81
2018-12-19T15:37:41.813Z,1.87
2018-12-19T15:40:11.629Z,1.86
2018-12-19T15:42:42.877Z,1.88
2018-12-19T15:45:12.455Z,1.84
2018-12-19T15:47:42.610Z,1.83
2018-12-19T15:50:11.992Z,1.89
2018-12-19T15:52:41.280Z,1.85
2018-12-19T15:55:11.465Z,1.91
2018-12-19T15:57:41.780Z,1.89
2018-12-19T16:00:15.764Z,1.89
2018-12-19T16:02:45.088Z,1.84
2018-12-19T16:05:17.332Z,1.86
2018-12-19T16:07:46.694Z,1.90
2018-12-19T16:10:16.479Z,1.80
2018-12-19T16:12:46.387Z,1.84
2018-12-19T16:15:16.629Z,1.81
2018-12-19T16:17:48.263Z,1.85
2018-12-19T16:20:18.680Z,1.82
2018-12-19T16:22:48.067Z,1.80
2018-12-19T16:25:17.897Z,1.84
2018-12-19T16:27:49.969Z,1.80
2018-12-19T16:30:20.844Z,1.77
2018-12-19T16:32:50.184Z,1.80
2018-12-19T16:35:19.469Z,1.85
2018-12-19T16:37:48.876Z,1.87
2018-12-19T16:40:18.205Z,1.87
2018-12-19T16:42:47.997Z,1.86
2018-12-19T16:45:23.087Z,1.93
2018-12-19T16:47:54.643Z,1.93
2018-12-19T16:50:24.476Z,1.86
2018-12-19T16:52:53.833Z,1.88
2018-12-19T16:55:24.338Z,1.81
2018-12-19T16:57:54.156Z,1.83
2018-12-19T17:00:24.673Z,1.87
2018-12-19T17:02:53.917Z,1.79
2018-12-19T17:05:23.778Z,1.77
2018-12-19T17:07:53.109Z,1.84
2018-12-19T17:10:22.734Z,1.79
2018-12-19T17:12:52.997Z,1.77
2018-12-19T17:15:24.147Z,1.64
2018-12-19T17:17:53.669Z,1.69
2018-12-19T17:20:22.876Z,1.66
2018-12-19T17:22:52.214Z,1.67
2018-12-19T17:25:21.798Z,1.75
2018-12-19T17:27:51.199Z,1.78
2018-12-19T17:30:21.311Z,1.72
2018-12-19T17:32:50.614Z,1.74
2018-12-19T17:35:20.790Z,1.82
2018-12-19T17:37:50.142Z,1.70
2018-12-19T17:40:20.933Z,1.72
2018-12-19T17:42:50.956Z,1.75
2018-12-19T17:45:22.133Z,1.71
2018-12-19T17:47:53.851Z,1.73
2018-12-19T17:50:23.451Z,1.76
2018-12-19T17:52:53.201Z,1.76
2018-12-19T17:55:22.878Z,1.78
2018-12-19T17:57:52.536Z,1.78
2018-12-19T18:00:22.292Z,1.77
2018-12-19T18:02:51.662Z,1.75
2018-12-19T18:05:20.976Z,1.69
2018-12-19T18:07:53.189Z,1.81
2018-12-19T18:10:22.609Z,1.73
2018-12-19T18:12:53.508Z,1.67
2018-12-19T18:15:23.210Z,1.72
2018-12-19T18:17:52.530Z,1.64
2018-12-19T18:20:22.774Z,1.64
2018-12-19T18:22:52.034Z,1.76
2018-12-19T18:25:21.640Z,1.65
2018-12-19T18:27:51.057Z,1.68
2018-12-19T18:30:20.374Z,1.61
2018-12-19T18:32:50.833Z,1.58
2018-12-19T18:35:21.099Z,1.64
2018-12-19T18:37:50.397Z,1.63
2018-12-19T18:40:20.276Z,1.66
2018-12-19T18:42:50.620Z,1.72
2018-12-19T18:45:20.514Z,1.67
2018-12-19T18:47:51.064Z,1.67
2018-12-19T18:50:21.384Z,1.68
2018-12-19T18:52:52.129Z,1.70
2018-12-19T18:55:22.308Z,1.71
2018-12-19T18:57:52.099Z,1.64
2018-12-19T19:00:33.255Z,1.66
2018-12-19T19:03:02.626Z,1.67
2018-12-19T19:05:36.396Z,1.61
2018-12-19T19:08:07.973Z,1.62
2018-12-19T19:10:37.952Z,1.63
2018-12-19T19:13:08.768Z,1.58
2018-12-19T19:15:38.070Z,1.62
2018-12-19T19:18:07.371Z,1.62
2018-12-19T19:20:37.539Z,1.62
2018-12-19T19:23:09.801Z,1.65
2018-12-19T19:25:41.049Z,1.66
2018-12-19T19:28:12.122Z,1.65
2018-12-19T19:30:41.525Z,1.68
2018-12-19T19:33:11.544Z,1.72
2018-12-19T19:35:43.238Z,1.67
2018-12-19T19:38:13.342Z,1.76
2018-12-19T19:40:43.580Z,1.76
2018-12-19T19:43:12.915Z,1.75
2018-12-19T19:45:42.731Z,1.73
2018-12-19T19:48:12.949Z,1.72
2018-12-19T19:50:43.830Z,1.75
2018-12-19T19:53:13.154Z,1.75
2018-12-19T19:55:42.369Z,1.81
2018-12-19T19:58:11.676Z,1.74
2018-12-19T20:00:41.314Z,1.75
2018-12-19T20:03:12.797Z,1.67
2018-12-19T20:05:44.068Z,1.71
2018-12-19T20:08:14.800Z,1.66
2018-12-19T20:10:45.402Z,1.74
2018-12-19T20:13:15.508Z,1.67
2018-12-19T20:15:45.630Z,1.71
2018-12-19T20:18:16.266Z,1.73
2018-12-19T20:20:45.582Z,1.72
2018-12-19T20:23:15.295Z,1.67
2018-12-19T20:25:45.257Z,1.63
2018-12-19T20:28:17.482Z,1.64
2018-12-19T20:30:46.699Z,1.68
2018-12-19T20:33:16.146Z,1.68
2018-12-19T20:35:46.349Z,1.73
2018-12-19T20:38:16.796Z,1.71
2018-12-19T20:40:47.693Z,1.67
2018-12-19T20:43:17.675Z,1.71
2018-12-19T20:45:47.160Z,1.73
2018-12-19T20:48:16.412Z,1.72
2018-12-19T20:50:46.021Z,1.71
2018-12-19T20:53:15.981Z,1.69
2018-12-19T20:55:46.952Z,1.71
2018-12-19T20:58:16.264Z,1.74
2018-12-19T21:00:46.928Z,1.79
2018-12-19T21:03:17.286Z,1.84
2018-12-19T21:05:46.589Z,1.72
2018-12-19T21:08:17.141Z,1.74
2018-12-19T21:10:47.162Z,1.76
2018-12-19T21:13:16.975Z,1.77
2018-12-19T21:15:47.345Z,1.78
2018-12-19T21:18:22.891Z,1.67
2018-12-19T21:20:52.829Z,1.75
2018-12-19T21:23:22.136Z,1.85
2018-12-19T21:25:51.921Z,1.77
2018-12-19T21:28:22.703Z,1.80
2018-12-19T21:30:52.090Z,1.81
2018-12-19T21:33:22.026Z,1.87
2018-12-19T21:35:51.926Z,1.82
2018-12-19T21:38:22.606Z,1.89
2018-12-19T21:40:52.059Z,1.83
2018-12-19T21:43:21.733Z,1.83
2018-12-19T21:45:51.921Z,1.77
2018-12-19T21:48:21.972Z,1.82
2018-12-19T21:50:51.268Z,1.76
2018-12-19T21:53:21.902Z,1.83
2018-12-19T21:55:51.723Z,1.89
2018-12-19T21:58:22.202Z,1.82
2018-12-19T22:00:55.533Z,1.84
2018-12-19T22:03:26.073Z,1.85
2018-12-19T22:05:57.826Z,1.81
2018-12-19T22:08:30.483Z,1.81
2018-12-19T22:11:00.216Z,1.81
2018-12-19T22:13:34.092Z,1.80
2018-12-19T22:16:04.868Z,1.77
2018-12-19T22:18:39.684Z,1.81
2018-12-19T22:21:11.149Z,1.72
2018-12-19T22:23:42.282Z,1.75
2018-12-19T22:26:12.901Z,1.77
2018-12-19T22:28:42.831Z,1.82
2018-12-19T22:31:12.199Z,1.78
2018-12-19T22:33:42.805Z,1.75
2018-12-19T22:36:13.500Z,1.76
2018-12-19T22:38:43.746Z,1.73
2018-12-19T22:41:16.867Z,1.74
2018-12-19T22:43:46.216Z,1.71
2018-12-19T22:46:16.945Z,1.79
2018-12-19T22:48:47.973Z,1.78
2018-12-19T22:51:17.478Z,1.74
2018-12-19T22:53:46.887Z,1.78
2018-12-19T22:56:16.322Z,1.71
2018-12-19T22:58:47.971Z,1.79
2018-12-19T23:01:23.310Z,1.71
2018-12-19T23:03:58.160Z,1.61
2018-12-19T23:06:29.596Z,1.70
2018-12-19T23:08:59.573Z,1.69
2018-12-19T23:11:30.211Z,1.75
2018-12-19T23:14:01.332Z,1.67
2018-12-19T23:16:36.107Z,1.67
2018-12-19T23:19:12.073Z,1.59
2018-12-19T23:21:48.040Z,1.66
2018-12-19T23:24:24.013Z,1.62
2018-12-19T23:26:55.121Z,1.64
2018-12-19T23:29:29.063Z,1.70
2018-12-19T23:31:58.542Z,1.72
2018-12-19T23:34:28.524Z,1.70
2018-12-19T23:37:00.087Z,1.76
2018-12-19T23:39:32.797Z,1.73
2018-12-19T23:42:02.468Z,1.68
2018-12-19T23:44:34.319Z,1.65
2018-12-19T23:47:04.204Z,1.70
2018-12-19T23:49:35.050Z,1.64
2018-12-19T23:52:04.857Z,1.65
2018-12-19T23:54:34.387Z,1.58
2018-12-19T23:57:03.854Z,1.60
2018-12-19T23:59:33.239Z,1.63
